Davis Savalnieks

Recruteur en chef - Skonto
3 Déc 2028
Dimanche
Processus

Personnalité

Adaptabilité (20) Ambition (17) Controverse (20) Loyauté (6) Pression (3) Professionnalisme (9) Sportivité (2) Tempérament (14)

Profil

Style d'entraînement Démocratique
Diplôme National A
Détermination 4
Gestion des joueurs 10
Motivation 8
Discipline 5
Satisfaction professionnelle
100%
Fatigue
0%
Rôle Recruteur en chef
Salaire 29.4K p/s
Contrat 14.03.2029

Performance

Comportement Bon
Efficacité de l'entraînement
34%
Développement des joueurs
15%
Prévention des blessures
45%
Mise en place tactique
20%

Événements récents

A évalué un joueur maintenant
A participé à une réunion de recrutement maintenant
A recommandé une cible de transfert maintenant
A recommandé une cible de transfert maintenant
A évalué un joueur 7j
A évalué un joueur 7j
A évalué un joueur 7j
A évalué un joueur 7j

Suivi en cours

184
Joueur Club Statut Capacité Confiance Observé Dernière observation Dernier vote
Lautaro Disanto Defensores Unidos Actif 103 / 106 40% 3 01.12.2028 -
Julián Vera Maipú Actif 103 / 116 40% 2 01.12.2028 -
John Córdoba Millonarios Actif 117 / 128 40% 2 01.12.2028 -
Radivoj Bosić Vitebsk Actif 109 / 110 40% 2 28.11.2028 -
Martín Campos Ferro Carril Oeste Actif 126 / 121 40% 2 28.11.2028 -
Pablo Cardona Cortulua Actif 112 / 119 40% 1 28.11.2028 -
Alejo Dramisino Atlanta Actif 125 / 125 40% 2 27.11.2028 -
Marco Miori Alvarado Actif 107 / 121 40% 1 27.11.2028 -
Iñaki Larthirigoyen San Telmo Actif 133 / 119 40% 1 27.11.2028 -
Federico Versaci Talleres Actif 110 / 116 40% 4 26.11.2028 -
Kirill Tsepenkov Dnepr Mogilev Actif 99 / 100 40% 4 26.11.2028 -
Gianluca Pugliese Güemes Actif 121 / 108 40% 3 26.11.2028 -
Álvaro Meléndez Real Cartagena Actif 109 / 117 40% 1 26.11.2028 -
David Maguicha Atlanta Actif 103 / 94 40% 1 26.11.2028 -
Matías Machado Racing Actif 126 / 116 40% 2 24.11.2028 -
Yuber Quiñónes Patriotas Actif 113 / 111 40% 1 24.11.2028 -
Braian Aranda Agropecuario Argentino Actif 124 / 113 40% 2 23.11.2028 -
Tobías Leiva Estudiantes Actif 127 / 116 40% 1 23.11.2028 -
Nicolás Mosca Atlanta Actif 116 / 109 40% 1 23.11.2028 -
Johan Campaña Patriotas Actif 109 / 108 40% 1 22.11.2028 -
Alexey Dayneko Neman Actif 94 / 97 40% 1 22.11.2028 -
Patricio Moyano Defensores Actif 127 / 118 40% 2 21.11.2028 -
Alexey Antilevskiy Slavia Mozyr Actif 91 / 98 40% 5 21.11.2028 -
Nicolás Retamar Ferro Carril Oeste Actif 114 / 111 40% 2 21.11.2028 -
Tomás Blanco Estudiantes Actif 108 / 103 40% 1 21.11.2028 -
Blas Armoa Gimnasia y Esgrima Actif 128 / 116 40% 1 21.11.2028 -
Sebastián Marfort Racing Actif 100 / 101 40% 1 21.11.2028 -
Pedro Souto Temperley Actif 113 / 110 40% 1 20.11.2028 -
Franco Vedoya Central Norte Actif 108 / 120 40% 4 19.11.2028 -
Enzo González Defensores Actif 108 / 100 40% 1 19.11.2028 -
Artem Miroevskiy Bumprom Gomel Actif 92 / 87 40% 1 19.11.2028 -
Daniel Barrea Godoy Cruz Actif 135 / 124 40% 1 17.11.2028 -
Tomás O'Connor Gimnasia y Esgrima Actif 117 / 126 40% 1 17.11.2028 -
Zakhar Gitselev Smorgon Actif 92 / 93 40% 1 17.11.2028 -
Kevin Medina Daugavpils Négociation 95 / 95 72% 1 21.08.2028 Approuver
Nicolás Maturana Daugavpils Négociation 86 / 78 72% 1 14.08.2028 -
Abdulla Mohamed Daugavpils Actif 74 / 77 30% 1 / 1m 19.07.2028 -
Roberts Laizans Ventspils Négociation 69 / 78 72% 1 02.06.2028 -
Omar Khedr Gillingham Actif 110 / 114 40% 1 31.05.2028 -
Mikhail Ignatov Sochi Actif 115 / 123 40% 1 31.05.2028 -
Luke Alker Metta/LU Actif 78 / 83 52% 1 / 1m 05.04.2028 -
Janis Vanins Daugavpils Actif 61 / 66 30% 1 / 1m 05.04.2028 -
Beknaz Almazbekov Liepaja Actif 104 / 110 69% 1 02.01.2028 Approuver
Juan Sebastián Herrera Deportivo La Guaira Actif 108 / 103 40% 2 31.12.2027 -
Ramón González Almirante Brown Actif 126 / 116 40% 2 31.12.2027 -
Kirill Danilin Ural Actif 110 / 104 40% 2 14.12.2027 -
Rodrigo González Mitre Actif 128 / 113 40% 4 14.12.2027 -
Bryan Teixeira Zalgiris Actif 112 / 115 40% 2 14.12.2027 -
Juan David Rueda Alianza Petrolera Actif 116 / 108 40% 2 13.12.2027 -
Manuel Mónaco Sarmiento Actif 129 / 130 40% 2 13.12.2027 -
Oscar Garrido Mitre Actif 122 / 120 40% 3 11.12.2027 -
Ariel Castellano Alvarado Actif 98 / 101 40% 1 11.12.2027 -
David Veliz Güemes Actif 106 / 103 40% 1 07.12.2027 -
Santiago Gutiérrez Alvarado Actif 106 / 109 40% 2 06.12.2027 -
Brian Farioli Estudiantes Actif 105 / 119 40% 2 06.12.2027 -
Alexandr Lomovitskiy Torpedo-BelAZ Actif 118 / 106 40% 1 06.12.2027 -
Giorgi Arabidze Torpedo Kutaisi Actif 111 / 123 40% 1 24.11.2027 -
Santiago Camacho Estudiantes Actif 103 / 99 40% 1 24.11.2027 -
Santiago Sala Güemes Actif 112 / 111 40% 2 23.11.2027 -
Matías Bergara Nueva Chicago Actif 110 / 116 40% 2 23.11.2027 -
Brayan Palmezano Deportivo Tachira Actif 100 / 108 40% 3 22.11.2027 -
Tomás Porra Barracas Central Actif 130 / 130 40% 2 21.11.2027 -
Renzo Reynaga Patronato Actif 109 / 106 40% 1 20.11.2027 -
Franco Ayunta Temperley Actif 123 / 116 40% 2 19.11.2027 -
Matías Viguet Maipú Actif 117 / 101 40% 2 04.11.2027 -
Milton Gerez Güemes Actif 111 / 113 40% 1 02.11.2027 -
Alexandr Ksenofontov Minsk Actif 92 / 88 40% 1 01.11.2027 -
Yegor Kortsov Dinamo Brest Actif 105 / 114 40% 1 06.10.2027 -
Didier Dawson Envigado Actif 108 / 103 40% 2 05.10.2027 -
José Barreto Quilmes Actif 111 / 117 40% 1 04.10.2027 -
Brian Orosco Godoy Cruz Actif 113 / 113 40% 1 16.09.2027 -
Shariff Musa Gor Mahia Actif 91 / 96 40% 1 15.09.2027 -
Moutir Chajia Suduva Actif 111 / 106 40% 1 15.09.2027 -
Denis Grechikho Dinamo Brest Actif 92 / 97 40% 1 11.09.2027 -
Augusto Berrondo Tristán Suárez Actif 106 / 121 40% 2 10.09.2027 -
Fawaz Abdullahi Dinamo Minsk Actif 108 / 102 40% 1 10.09.2027 -
César Magallan Estudiantes de Merida Actif 107 / 106 40% 2 09.09.2027 -
Maximiliano Rueda Patronato Actif 113 / 103 40% 1 09.09.2027 -
Enzo Trinidad Colegiales Actif 102 / 112 40% 1 07.09.2027 -
Augustine Nwaorisa Enyimba Actif 92 / 106 40% 1 07.09.2027 -
Lautaro Lusnig Deportivo Tachira Actif 121 / 105 40% 1 06.09.2027 -
Joshua Nyatini Kakamega Homeboyz Actif 88 / 96 40% 1 06.09.2027 -
Lander Astiazarán Real Sociedad Actif 103 / 116 40% 1 16.08.2027 -
Brando Moruzzi Cittadella Actif 97 / 101 40% 1 19.07.2027 -
Igor Konovalov Chernomorets Actif 95 / 94 40% 2 14.07.2027 -
Lorenzo Carissoni Padova Actif 131 / 129 40% 1 14.07.2027 -
Danila Vedernikov Orenburg Actif 107 / 101 40% 5 12.07.2027 -
Artem Meschaninov Rodina Actif 112 / 101 40% 2 12.07.2027 -
Kamil Ibragimov Volga Actif 94 / 91 40% 3 11.07.2027 -
Bojan Roganović Torpedo Moscow Actif 114 / 104 40% 2 11.07.2027 -
Konstantin Kovalev Volga Actif 105 / 97 40% 3 10.07.2027 -
Stefan Lončar Akron Actif 118 / 123 40% 3 07.07.2027 -
Robert Mejía Orenburg Actif 118 / 116 40% 5 06.07.2027 -
Gleb Shevchenko Torpedo Moscow Actif 113 / 113 40% 2 05.07.2027 -
Daniil Penchikov Arsenal Tula Actif 105 / 108 40% 4 05.07.2027 -
Konstantin Kertanov Chelyabinsk Actif 97 / 98 40% 2 04.07.2027 -
Vasily Cherov Ufa Actif 110 / 101 40% 1 04.07.2027 -
Maxime Leverbe Vicenza Actif 109 / 123 40% 1 04.07.2027 -
Pavel Maslov Chaika Actif 105 / 103 40% 2 02.07.2027 -
Maxime Sivis Orenburg Actif 123 / 115 40% 4 01.07.2027 -
Darko Todorović Fakel Actif 121 / 112 40% 2 01.07.2027 -
Iker Pozo Rodina Actif 118 / 116 40% 2 01.07.2027 -
Ruslan Baitukov Chelyabinsk Actif 103 / 94 40% 3 30.06.2027 -
Edgardo Fariña Nizhniy Novgorod Actif 111 / 113 40% 3 26.06.2027 -
Islamzhan Nasyrov Ryazan Actif 94 / 92 40% 3 26.06.2027 -
Mitja Križan Rodina Actif 113 / 108 40% 1 23.06.2027 -
Marat Bokoev Akron Actif 126 / 115 40% 1 23.06.2027 -
Mehdi Dorval Catanzaro Actif 126 / 133 40% 1 22.06.2027 -
Andrea Chukanov Yenisey Actif 103 / 99 40% 1 22.06.2027 -
Andrea Meroni Mantova Actif 134 / 129 40% 1 21.06.2027 -
Vladislav Kamilov Ufa Actif 101 / 104 40% 1 21.06.2027 -
Idar Shumakhov Dinamo Makhachkala Actif 111 / 106 40% 2 14.06.2027 -
Danila Sukhomlinov Neftekhimik Actif 102 / 91 40% 1 10.06.2027 -
Garrik Levin Chelyabinsk Actif 103 / 97 40% 2 08.06.2027 -
Khetag Khosonov Akron Actif 119 / 116 40% 3 08.06.2027 -
Ilja Agapov Ufa Actif 121 / 115 40% 2 07.06.2027 -
Víctor Guzmán Sporting CP Actif 102 / 98 40% 1 04.06.2027 -
José Balza Deportivo Tachira Actif 121 / 115 40% 1 03.06.2027 -
David Sangaré Ryazan Actif 93 / 96 40% 1 01.06.2027 -
Leo Goglichidze Rodina Actif 115 / 107 40% 4 31.05.2027 -
Đorđe Pantelić Spartak Kostroma Actif 113 / 108 40% 3 31.05.2027 -
Pablo García Gijón Actif 112 / 102 40% 1 31.05.2027 -
Yury Zheleznov Akron Actif 105 / 105 40% 2 30.05.2027 -
Georgie Gent Barnsley Actif 108 / 120 40% 3 30.05.2027 -
Vladis Emmersón Yenisey Actif 100 / 99 40% 1 30.05.2027 -
Ítalo Ural Actif 113 / 109 40% 1 30.05.2027 -
Andrey Nikitin Neftekhimik Actif 96 / 88 40% 2 29.05.2027 -
Vyacheslav Grulev Nizhniy Novgorod Actif 117 / 116 40% 2 23.05.2027 -
Mario Ćurić Torpedo Moscow Actif 112 / 105 40% 1 22.05.2027 -
Yegor Noskov SKA Khabarovsk Actif 90 / 104 40% 3 21.05.2027 -
Ramazan Gadjimuradov Chelyabinsk Actif 104 / 103 40% 1 19.05.2027 -
Denis Fomin SKA Khabarovsk Actif 89 / 98 40% 1 18.05.2027 -
Kamran Aliev SKA Khabarovsk Actif 111 / 103 40% 2 16.05.2027 -
David Shavlokhov Chernomorets Actif 99 / 91 40% 1 14.05.2027 -
Alan Tsaraev Arsenal Tula Actif 108 / 104 40% 4 13.05.2027 -
Dmitry Vasiljev Orenburg Actif 111 / 124 40% 3 13.05.2027 -
Vladimir Khubulov Dinamo Makhachkala Actif 115 / 104 40% 2 10.05.2027 -
Danil Lipovoy Ufa Actif 103 / 102 40% 3 09.05.2027 -
David Kokoev Yenisey Actif 102 / 102 40% 3 09.05.2027 -
Yegor Danilkin Rotor Actif 94 / 94 40% 1 04.05.2027 -
Nuri Abdokov Fakel Actif 101 / 101 40% 1 30.04.2027 -
Alexey Berdnikov Chelyabinsk Actif 105 / 96 40% 1 29.04.2027 -
Nikita Pechenkin Sokol Actif 98 / 107 40% 1 29.04.2027 -
Eldar Ćivić Baltika Actif 126 / 111 40% 3 28.04.2027 -
Krasian Kolev Chernomorets Actif 97 / 102 40% 1 25.04.2027 -
Vyacheslav Yakimov Fakel Actif 105 / 109 40% 3 24.04.2027 -
Alexandr Troshechkin Rotor Actif 111 / 104 40% 2 24.04.2027 -
Temirkan Sundukov Dinamo Makhachkala Actif 117 / 107 40% 2 23.04.2027 -
Vladislav Masternoy SKA Khabarovsk Actif 96 / 105 40% 1 22.04.2027 -
Konstantin Shiltsov Baltika Actif 100 / 97 40% 1 20.04.2027 -
Andrey Mazurin Yenisey Actif 95 / 93 40% 1 18.04.2027 -
Ruslan Apekov Torpedo Moscow Actif 100 / 95 40% 3 17.04.2027 -
Anton Antonov Chernomorets Actif 97 / 95 40% 1 14.04.2027 -
Igor Shkolik SKA Khabarovsk Actif 97 / 100 40% 1 13.04.2027 -
Kirill Bozhenov Sokol Actif 100 / 96 40% 1 07.04.2027 -
Laurenţiu Brănescu Hibernians Actif 82 / 85 40% 1 02.01.2027 -
Ilja Tuseev Chelyabinsk Actif 103 / 97 40% 1 02.01.2027 -
Petr Kosarevskiy Sibir Actif 95 / 93 40% 1 02.01.2027 -
Alexandr Filin Baltika Actif 106 / 107 40% 2 31.12.2026 -
Maxim Khramtsov Rotor Actif 91 / 100 40% 1 31.12.2026 -
Daniil Marugin Shinnik Actif 98 / 96 40% 1 31.12.2026 -
Nikolay Tolstopyatov Neftekhimik Actif 106 / 105 40% 1 29.12.2026 -
Artem Makarchuk Sochi Actif 106 / 111 40% 3 28.12.2026 -
Saminu Abdullahi KAMAZ Actif 108 / 107 40% 3 28.12.2026 -
Alexandr Bem Tyumen Actif 94 / 94 40% 2 26.12.2026 -
Andrés Alarcón Dinamo Makhachkala Actif 112 / 113 40% 1 24.12.2026 -
Fahd Moufi Baltika Actif 117 / 118 40% 2 19.12.2026 -
Nikita Kakkoev Nizhniy Novgorod Actif 114 / 123 40% 2 16.12.2026 -
Nathan Gassama Baltika Actif 113 / 115 40% 2 16.12.2026 -
Soslan Takulov Arsenal Tula Actif 92 / 100 40% 3 13.12.2026 -
Ruslan Litvinov Spartak Moscow Actif 118 / 127 40% 1 13.12.2026 -
Kirill Malyarov Shinnik Actif 107 / 104 40% 1 09.12.2026 -
Ivan Churikov Sibir Actif 89 / 95 40% 1 09.12.2026 -
Oleg Krasilnichenko Volga Actif 85 / 88 40% 1 05.12.2026 -
Soslan Kagermazov Dinamo Makhachkala Actif 92 / 90 40% 1 04.12.2026 -
Fasson Lokomotiv Moscow Actif 122 / 109 40% 2 02.12.2026 -
Astemir Abazov Mashuk Actif 100 / 84 40% 1 27.11.2026 -
Marko Janković Qarabag Actif 134 / 129 40% 1 24.11.2026 -
Pavel Shakuro Tyumen Actif 92 / 89 40% 1 22.11.2026 -
Rodolphe Ekou Liepaja Actif 82 / 94 65% 1 24.08.2026 Approuver
Ignacio Manzanares Belgrano Actif 92 / 101 40% 1 03.08.2026 -
Timi Ogunniyi Liepaja Actif 90 / 99 40% 1 03.08.2026 -
Kyle Wootton Stockport County Actif 130 / 131 40% 1 01.08.2026 -
Tobías Cervera Gimnasia y Esgrima Actif 107 / 112 40% 1 01.08.2026 -